sensor_id;sensor_type;location;lat;lon;timestamp;pressure;altitude;pressure_sealevel;temperature;humidity
59168;BME280;70412;55.048;73.268;2024-02-04T00:00:59;99403.41;;;-13.88;100.00
59168;BME280;70412;55.048;73.268;2024-02-04T00:04:02;99412.69;;;-13.82;100.00
59168;BME280;70412;55.048;73.268;2024-02-04T00:07:04;99400.16;;;-13.78;100.00
59168;BME280;70412;55.048;73.268;2024-02-04T00:10:07;99401.91;;;-13.72;100.00
59168;BME280;70412;55.048;73.268;2024-02-04T00:13:10;99418.06;;;-13.59;100.00
59168;BME280;70412;55.048;73.268;2024-02-04T00:16:13;99402.97;;;-13.53;100.00
59168;BME280;70412;55.048;73.268;2024-02-04T00:19:15;99406.41;;;-13.48;100.00
59168;BME280;70412;55.048;73.268;2024-02-04T00:22:18;99381.09;;;-13.57;100.00
59168;BME280;70412;55.048;73.268;2024-02-04T00:25:22;99400.69;;;-13.33;100.00
59168;BME280;70412;55.048;73.268;2024-02-04T00:28:25;99400.69;;;-13.32;100.00
59168;BME280;70412;55.048;73.268;2024-02-04T00:31:30;99400.66;;;-13.35;100.00
59168;BME280;70412;55.048;73.268;2024-02-04T00:34:33;99399.00;;;-13.34;100.00
59168;BME280;70412;55.048;73.268;2024-02-04T00:37:37;99382.22;;;-13.31;100.00
59168;BME280;70412;55.048;73.268;2024-02-04T00:40:40;99379.69;;;-13.31;100.00
59168;BME280;70412;55.048;73.268;2024-02-04T00:43:42;99382.22;;;-13.31;100.00
59168;BME280;70412;55.048;73.268;2024-02-04T00:46:45;99367.91;;;-13.32;100.00
59168;BME280;70412;55.048;73.268;2024-02-04T00:49:49;99367.09;;;-13.26;100.00
59168;BME280;70412;55.048;73.268;2024-02-04T00:52:52;99370.56;;;-13.20;100.00
59168;BME280;70412;55.048;73.268;2024-02-04T00:55:57;99358.84;;;-13.11;100.00
59168;BME280;70412;55.048;73.268;2024-02-04T00:59:01;99360.59;;;-13.04;100.00
59168;BME280;70412;55.048;73.268;2024-02-04T01:02:04;99354.78;;;-12.94;100.00
59168;BME280;70412;55.048;73.268;2024-02-04T01:05:07;99358.22;;;-12.88;100.00
59168;BME280;70412;55.048;73.268;2024-02-04T01:08:09;99347.34;;;-12.80;100.00
59168;BME280;70412;55.048;73.268;2024-02-04T01:11:12;99319.47;;;-12.93;100.00
59168;BME280;70412;55.048;73.268;2024-02-04T01:14:15;99341.47;;;-12.75;100.00
59168;BME280;70412;55.048;73.268;2024-02-04T01:17:17;99313.66;;;-12.86;100.00
59168;BME280;70412;55.048;73.268;2024-02-04T01:20:32;99326.41;;;-12.63;100.00
59168;BME280;70412;55.048;73.268;2024-02-04T01:23:35;99331.47;;;-12.61;100.00
59168;BME280;70412;55.048;73.268;2024-02-04T01:26:38;99311.22;;;-12.69;100.00
59168;BME280;70412;55.048;73.268;2024-02-04T01:29:40;99329.84;;;-12.55;100.00
59168;BME280;70412;55.048;73.268;2024-02-04T01:32:43;99326.47;;;-12.52;100.00
59168;BME280;70412;55.048;73.268;2024-02-04T01:35:47;99310.47;;;-12.52;100.00
59168;BME280;70412;55.048;73.268;2024-02-04T01:38:49;99318.06;;;-12.49;100.00
59168;BME280;70412;55.048;73.268;2024-02-04T01:41:52;99308.84;;;-12.44;100.00
59168;BME280;70412;55.048;73.268;2024-02-04T01:44:54;99311.41;;;-12.41;100.00
59168;BME280;70412;55.048;73.268;2024-02-04T01:47:57;99270.91;;;-12.57;100.00
59168;BME280;70412;55.048;73.268;2024-02-04T01:51:00;99304.72;;;-12.30;100.00
59168;BME280;70412;55.048;73.268;2024-02-04T01:54:05;99298.88;;;-12.23;100.00
59168;BME280;70412;55.048;73.268;2024-02-04T01:57:10;99298.88;;;-12.17;100.00
59168;BME280;70412;55.048;73.268;2024-02-04T02:00:14;99293.00;;;-12.11;100.00
59168;BME280;70412;55.048;73.268;2024-02-04T02:03:31;99296.44;;;-12.02;100.00
59168;BME280;70412;55.048;73.268;2024-02-04T02:06:34;99289.69;;;-11.95;100.00
59168;BME280;70412;55.048;73.268;2024-02-04T02:09:43;99289.75;;;-11.86;100.00
59168;BME280;70412;55.048;73.268;2024-02-04T02:16:18;99286.38;;;-11.80;100.00
59168;BME280;70412;55.048;73.268;2024-02-04T02:19:32;99279.66;;;-11.77;100.00
59168;BME280;70412;55.048;73.268;2024-02-04T02:22:48;99277.16;;;-11.66;100.00
59168;BME280;70412;55.048;73.268;2024-02-04T02:26:04;99278.84;;;-11.60;100.00
59168;BME280;70412;55.048;73.268;2024-02-04T02:29:08;99278.84;;;-11.59;100.00
59168;BME280;70412;55.048;73.268;2024-02-04T02:32:11;99273.81;;;-11.56;100.00
59168;BME280;70412;55.048;73.268;2024-02-04T02:35:33;99267.91;;;-11.52;100.00
59168;BME280;70412;55.048;73.268;2024-02-04T02:38:59;99269.59;;;-11.43;100.00
59168;BME280;70412;55.048;73.268;2024-02-04T02:42:05;99256.13;;;-11.38;100.00
59168;BME280;70412;55.048;73.268;2024-02-04T02:45:09;99220.69;;;-11.48;100.00
59168;BME280;70412;55.048;73.268;2024-02-04T02:48:13;99244.31;;;-11.26;100.00
59168;BME280;70412;55.048;73.268;2024-02-04T02:51:17;99240.91;;;-11.19;100.00
59168;BME280;70412;55.048;73.268;2024-02-04T02:54:20;99240.06;;;-11.18;100.00
59168;BME280;70412;55.048;73.268;2024-02-04T02:57:23;99235.84;;;-11.10;100.00
59168;BME280;70412;55.048;73.268;2024-02-04T03:00:28;99220.66;;;-11.07;100.00
59168;BME280;70412;55.048;73.268;2024-02-04T03:03:31;99235.84;;;-10.96;100.00
59168;BME280;70412;55.048;73.268;2024-02-04T03:06:33;99233.31;;;-10.86;100.00
59168;BME280;70412;55.048;73.268;2024-02-04T03:09:36;99230.75;;;-10.77;100.00
59168;BME280;70412;55.048;73.268;2024-02-04T03:12:38;99227.38;;;-10.71;100.00
59168;BME280;70412;55.048;73.268;2024-02-04T03:15:40;99220.56;;;-10.61;100.00
59168;BME280;70412;55.048;73.268;2024-02-04T03:18:46;99193.56;;;-10.68;100.00
59168;BME280;70412;55.048;73.268;2024-02-04T03:21:48;99220.50;;;-10.43;100.00
59168;BME280;70412;55.048;73.268;2024-02-04T03:24:51;99197.75;;;-10.49;100.00
59168;BME280;70412;55.048;73.268;2024-02-04T03:27:55;99227.22;;;-10.27;100.00
59168;BME280;70412;55.048;73.268;2024-02-04T03:30:57;99234.00;;;-10.23;100.00
59168;BME280;70412;55.048;73.268;2024-02-04T03:34:00;99223.00;;;-10.20;100.00
59168;BME280;70412;55.048;73.268;2024-02-04T03:37:03;99221.25;;;-10.15;100.00
59168;BME280;70412;55.048;73.268;2024-02-04T03:40:07;99208.56;;;-10.11;100.00
59168;BME280;70412;55.048;73.268;2024-02-04T03:43:10;99188.25;;;-10.07;100.00
59168;BME280;70412;55.048;73.268;2024-02-04T03:46:15;99173.06;;;-10.11;100.00
59168;BME280;70412;55.048;73.268;2024-02-04T03:49:18;99193.22;;;-9.86;100.00
59168;BME280;70412;55.048;73.268;2024-02-04T03:52:21;99194.88;;;-9.81;100.00
59168;BME280;70412;55.048;73.268;2024-02-04T03:55:24;99176.19;;;-9.69;100.00
59168;BME280;70412;55.048;73.268;2024-02-04T03:58:27;99184.53;;;-9.52;100.00
59168;BME280;70412;55.048;73.268;2024-02-04T04:01:35;99177.72;;;-9.46;100.00
59168;BME280;70412;55.048;73.268;2024-02-04T04:04:40;99181.06;;;-9.38;100.00
59168;BME280;70412;55.048;73.268;2024-02-04T04:07:56;99175.81;;;-9.26;100.00
59168;BME280;70412;55.048;73.268;2024-02-04T04:10:58;99167.25;;;-9.13;100.00
59168;BME280;70412;55.048;73.268;2024-02-04T04:14:02;99163.75;;;-9.00;100.00
59168;BME280;70412;55.048;73.268;2024-02-04T04:17:04;99166.97;;;-8.82;100.00
59168;BME280;70412;55.048;73.268;2024-02-04T04:20:08;99165.13;;;-8.70;100.00
59168;BME280;70412;55.048;73.268;2024-02-04T04:23:12;99162.41;;;-8.53;100.00
59168;BME280;70412;55.048;73.268;2024-02-04T04:26:14;99153.75;;;-8.38;100.00
59168;BME280;70412;55.048;73.268;2024-02-04T04:29:17;99149.34;;;-8.25;100.00
59168;BME280;70412;55.048;73.268;2024-02-04T04:32:24;99145.78;;;-8.12;100.00
59168;BME280;70412;55.048;73.268;2024-02-04T04:35:29;99133.75;;;-8.01;100.00
59168;BME280;70412;55.048;73.268;2024-02-04T04:38:32;99135.28;;;-7.91;100.00
59168;BME280;70412;55.048;73.268;2024-02-04T04:41:35;99132.53;;;-7.77;100.00
59168;BME280;70412;55.048;73.268;2024-02-04T04:44:39;99133.25;;;-7.68;100.00
59168;BME280;70412;55.048;73.268;2024-02-04T04:47:42;99130.50;;;-7.54;100.00
59168;BME280;70412;55.048;73.268;2024-02-04T04:50:45;99112.66;;;-7.52;100.00
59168;BME280;70412;55.048;73.268;2024-02-04T04:53:55;99117.31;;;-7.28;100.00
59168;BME280;70412;55.048;73.268;2024-02-04T04:56:59;99113.63;;;-7.12;100.00
59168;BME280;70412;55.048;73.268;2024-02-04T05:00:02;99104.84;;;-6.95;100.00
59168;BME280;70412;55.048;73.268;2024-02-04T05:03:08;99098.56;;;-6.79;100.00
59168;BME280;70412;55.048;73.268;2024-02-04T05:06:11;99090.41;;;-6.55;100.00
59168;BME280;70412;55.048;73.268;2024-02-04T05:09:14;99084.00;;;-6.32;100.00
59168;BME280;70412;55.048;73.268;2024-02-04T05:12:16;99077.69;;;-6.16;100.00
59168;BME280;70412;55.048;73.268;2024-02-04T05:15:19;99081.53;;;-5.98;100.00
59168;BME280;70412;55.048;73.268;2024-02-04T05:18:23;99078.78;;;-5.91;100.00
59168;BME280;70412;55.048;73.268;2024-02-04T05:21:29;99090.56;;;-5.83;100.00
59168;BME280;70412;55.048;73.268;2024-02-04T05:24:31;99069.97;;;-5.77;100.00
59168;BME280;70412;55.048;73.268;2024-02-04T05:27:34;99073.13;;;-5.66;100.00
59168;BME280;70412;55.048;73.268;2024-02-04T05:30:38;99078.16;;;-5.63;100.00
59168;BME280;70412;55.048;73.268;2024-02-04T05:33:41;98995.59;;;-5.98;100.00
59168;BME280;70412;55.048;73.268;2024-02-04T05:37:03;99079.06;;;-5.32;100.00
59168;BME280;70412;55.048;73.268;2024-02-04T05:40:15;99080.44;;;-5.18;100.00
59168;BME280;70412;55.048;73.268;2024-02-04T05:43:23;99086.09;;;-5.07;100.00
59168;BME280;70412;55.048;73.268;2024-02-04T05:46:26;99085.78;;;-4.95;100.00
59168;BME280;70412;55.048;73.268;2024-02-04T05:49:32;99082.81;;;-4.80;100.00
59168;BME280;70412;55.048;73.268;2024-02-04T05:52:34;99058.94;;;-4.80;100.00
59168;BME280;70412;55.048;73.268;2024-02-04T05:55:37;99083.56;;;-4.47;100.00
59168;BME280;70412;55.048;73.268;2024-02-04T05:58:40;99077.97;;;-4.30;100.00
59168;BME280;70412;55.048;73.268;2024-02-04T06:01:42;99081.41;;;-4.03;100.00
59168;BME280;70412;55.048;73.268;2024-02-04T06:04:46;99081.69;;;-3.84;100.00
59168;BME280;70412;55.048;73.268;2024-02-04T06:07:50;99087.69;;;-3.59;100.00
59168;BME280;70412;55.048;73.268;2024-02-04T06:10:52;99082.41;;;-3.28;100.00
59168;BME280;70412;55.048;73.268;2024-02-04T06:13:55;99066.72;;;-2.94;100.00
59168;BME280;70412;55.048;73.268;2024-02-04T06:16:57;99065.31;;;-2.79;100.00
59168;BME280;70412;55.048;73.268;2024-02-04T06:20:01;99069.91;;;-2.64;100.00
59168;BME280;70412;55.048;73.268;2024-02-04T06:23:04;99053.28;;;-2.77;100.00
59168;BME280;70412;55.048;73.268;2024-02-04T06:26:08;99074.03;;;-2.60;100.00
59168;BME280;70412;55.048;73.268;2024-02-04T06:29:11;99064.53;;;-2.58;100.00
59168;BME280;70412;55.048;73.268;2024-02-04T06:32:13;99071.63;;;-2.41;100.00
59168;BME280;70412;55.048;73.268;2024-02-04T06:35:19;99051.78;;;-2.59;100.00
59168;BME280;70412;55.048;73.268;2024-02-04T06:38:22;99086.31;;;-2.44;100.00
59168;BME280;70412;55.048;73.268;2024-02-04T06:41:26;99082.34;;;-2.53;100.00
59168;BME280;70412;55.048;73.268;2024-02-04T06:44:44;99087.81;;;-2.62;100.00
59168;BME280;70412;55.048;73.268;2024-02-04T06:47:47;99082.34;;;-2.53;100.00
59168;BME280;70412;55.048;73.268;2024-02-04T06:50:49;99084.00;;;-2.52;100.00
59168;BME280;70412;55.048;73.268;2024-02-04T06:53:55;99057.69;;;-2.57;100.00
59168;BME280;70412;55.048;73.268;2024-02-04T06:56:59;99081.56;;;-2.32;100.00
59168;BME280;70412;55.048;73.268;2024-02-04T07:00:03;99079.53;;;-2.24;100.00
59168;BME280;70412;55.048;73.268;2024-02-04T07:03:10;99087.25;;;-2.24;100.00
59168;BME280;70412;55.048;73.268;2024-02-04T07:06:13;99063.53;;;-2.30;100.00
59168;BME280;70412;55.048;73.268;2024-02-04T07:09:17;99085.13;;;-2.12;100.00
59168;BME280;70412;55.048;73.268;2024-02-04T07:12:21;99085.00;;;-2.09;100.00
59168;BME280;70412;55.048;73.268;2024-02-04T07:15:24;99095.81;;;-2.01;100.00
59168;BME280;70412;55.048;73.268;2024-02-04T07:18:27;99092.19;;;-1.96;100.00
59168;BME280;70412;55.048;73.268;2024-02-04T07:21:29;99085.72;;;-1.84;100.00
59168;BME280;70412;55.048;73.268;2024-02-04T07:24:33;99091.53;;;-1.79;100.00
59168;BME280;70412;55.048;73.268;2024-02-04T07:27:39;99089.34;;;-1.68;100.00
59168;BME280;70412;55.048;73.268;2024-02-04T07:30:42;99055.88;;;-1.66;100.00
59168;BME280;70412;55.048;73.268;2024-02-04T07:33:45;99088.25;;;-1.20;100.00
59168;BME280;70412;55.048;73.268;2024-02-04T07:36:49;99085.16;;;-1.08;100.00
59168;BME280;70412;55.048;73.268;2024-02-04T07:39:55;99074.38;;;-0.95;100.00
59168;BME280;70412;55.048;73.268;2024-02-04T07:43:02;99064.00;;;-0.94;100.00
59168;BME280;70412;55.048;73.268;2024-02-04T07:46:04;99061.84;;;-0.84;100.00
59168;BME280;70412;55.048;73.268;2024-02-04T07:49:08;99069.88;;;-0.72;100.00
59168;BME280;70412;55.048;73.268;2024-02-04T07:52:11;99080.09;;;-0.70;100.00
59168;BME280;70412;55.048;73.268;2024-02-04T07:55:13;99081.16;;;-0.74;100.00
59168;BME280;70412;55.048;73.268;2024-02-04T07:58:16;99088.78;;;-1.12;100.00
59168;BME280;70412;55.048;73.268;2024-02-04T08:01:19;99082.41;;;-1.23;100.00
59168;BME280;70412;55.048;73.268;2024-02-04T08:04:21;99084.72;;;-1.17;100.00
59168;BME280;70412;55.048;73.268;2024-02-04T08:07:24;99086.72;;;-1.24;100.00
59168;BME280;70412;55.048;73.268;2024-02-04T08:10:28;99095.31;;;-1.45;100.00
59168;BME280;70412;55.048;73.268;2024-02-04T08:13:30;99097.25;;;-1.50;100.00
59168;BME280;70412;55.048;73.268;2024-02-04T08:16:32;99095.69;;;-1.54;100.00
59168;BME280;70412;55.048;73.268;2024-02-04T08:19:35;99077.00;;;-1.80;100.00
59168;BME280;70412;55.048;73.268;2024-02-04T08:22:38;99098.91;;;-1.71;100.00
59168;BME280;70412;55.048;73.268;2024-02-04T08:25:41;99104.00;;;-1.70;100.00
59168;BME280;70412;55.048;73.268;2024-02-04T08:28:43;99102.44;;;-1.74;100.00
59168;BME280;70412;55.048;73.268;2024-02-04T08:31:46;99092.81;;;-1.69;100.00
59168;BME280;70412;55.048;73.268;2024-02-04T08:34:48;99103.34;;;-1.75;100.00
59168;BME280;70412;55.048;73.268;2024-02-04T08:37:51;99100.91;;;-1.78;100.00
59168;BME280;70412;55.048;73.268;2024-02-04T08:40:54;99083.88;;;-1.80;100.00
59168;BME280;70412;55.048;73.268;2024-02-04T08:43:56;99100.94;;;-1.57;100.00
59168;BME280;70412;55.048;73.268;2024-02-04T08:47:01;99083.38;;;-1.46;100.00
59168;BME280;70412;55.048;73.268;2024-02-04T08:50:04;99098.03;;;-1.28;100.00
59168;BME280;70412;55.048;73.268;2024-02-04T08:53:07;99091.78;;;-1.22;100.00
59168;BME280;70412;55.048;73.268;2024-02-04T08:56:10;99103.06;;;-1.05;100.00
59168;BME280;70412;55.048;73.268;2024-02-04T08:59:12;99081.31;;;-1.18;100.00
59168;BME280;70412;55.048;73.268;2024-02-04T09:02:16;99078.88;;;-1.21;100.00
59168;BME280;70412;55.048;73.268;2024-02-04T09:05:19;99103.81;;;-1.43;100.00
59168;BME280;70412;55.048;73.268;2024-02-04T09:08:22;99114.09;;;-1.43;100.00
59168;BME280;70412;55.048;73.268;2024-02-04T09:11:24;99115.41;;;-1.55;100.00
59168;BME280;70412;55.048;73.268;2024-02-04T09:14:27;99134.25;;;-1.54;100.00
59168;BME280;70412;55.048;73.268;2024-02-04T09:17:30;99127.50;;;-1.79;100.00
59168;BME280;70412;55.048;73.268;2024-02-04T09:20:35;99129.75;;;-1.93;100.00
59168;BME280;70412;55.048;73.268;2024-02-04T09:23:37;99130.84;;;-1.99;100.00
59168;BME280;70412;55.048;73.268;2024-02-04T09:26:40;99139.06;;;-2.12;100.00
59168;BME280;70412;55.048;73.268;2024-02-04T09:29:42;99147.09;;;-2.22;100.00
59168;BME280;70412;55.048;73.268;2024-02-04T09:32:45;99154.13;;;-2.27;100.00
59168;BME280;70412;55.048;73.268;2024-02-04T09:35:48;99148.94;;;-2.25;100.00
59168;BME280;70412;55.048;73.268;2024-02-04T09:38:51;99159.72;;;-2.39;100.00
59168;BME280;70412;55.048;73.268;2024-02-04T09:41:54;99141.78;;;-2.40;100.00
59168;BME280;70412;55.048;73.268;2024-02-04T09:44:57;99169.88;;;-2.12;100.00
59168;BME280;70412;55.048;73.268;2024-02-04T09:48:01;99178.88;;;-2.01;99.83
59168;BME280;70412;55.048;73.268;2024-02-04T09:51:06;99173.13;;;-2.07;99.12
59168;BME280;70412;55.048;73.268;2024-02-04T09:54:10;99184.72;;;-2.44;98.07
59168;BME280;70412;55.048;73.268;2024-02-04T09:57:13;99176.84;;;-2.89;94.45
59168;BME280;70412;55.048;73.268;2024-02-04T10:00:19;99191.34;;;-3.13;95.62
59168;BME280;70412;55.048;73.268;2024-02-04T10:03:24;99191.84;;;-3.28;94.51
59168;BME280;70412;55.048;73.268;2024-02-04T10:06:27;99198.53;;;-3.24;95.31
59168;BME280;70412;55.048;73.268;2024-02-04T10:09:29;99208.09;;;-3.29;95.39
59168;BME280;70412;55.048;73.268;2024-02-04T10:12:32;99211.66;;;-3.33;95.66
59168;BME280;70412;55.048;73.268;2024-02-04T10:15:37;99222.19;;;-3.43;93.84
59168;BME280;70412;55.048;73.268;2024-02-04T10:18:52;99201.88;;;-3.49;94.03
59168;BME280;70412;55.048;73.268;2024-02-04T10:22:00;99239.69;;;-3.57;94.06
59168;BME280;70412;55.048;73.268;2024-02-04T10:25:09;99242.41;;;-3.61;92.29
59168;BME280;70412;55.048;73.268;2024-02-04T10:28:28;99244.44;;;-3.73;92.84
59168;BME280;70412;55.048;73.268;2024-02-04T10:31:30;99251.47;;;-3.79;93.08
59168;BME280;70412;55.048;73.268;2024-02-04T10:34:37;99255.13;;;-3.88;91.41
59168;BME280;70412;55.048;73.268;2024-02-04T10:37:39;99265.59;;;-3.95;89.34
59168;BME280;70412;55.048;73.268;2024-02-04T10:40:42;99275.28;;;-4.07;88.02
59168;BME280;70412;55.048;73.268;2024-02-04T10:43:47;99280.59;;;-4.13;86.94
59168;BME280;70412;55.048;73.268;2024-02-04T10:46:51;99287.63;;;-4.21;85.62
59168;BME280;70412;55.048;73.268;2024-02-04T10:49:56;99287.97;;;-4.33;86.90
59168;BME280;70412;55.048;73.268;2024-02-04T10:53:04;99293.25;;;-4.41;85.99
59168;BME280;70412;55.048;73.268;2024-02-04T10:56:36;99295.38;;;-4.56;85.73
59168;BME280;70412;55.048;73.268;2024-02-04T10:59:43;99303.09;;;-4.58;85.04
59168;BME280;70412;55.048;73.268;2024-02-04T11:02:45;99304.28;;;-4.73;85.37
59168;BME280;70412;55.048;73.268;2024-02-04T11:05:50;99301.09;;;-4.81;85.62
59168;BME280;70412;55.048;73.268;2024-02-04T11:08:53;99319.97;;;-4.85;85.62
59168;BME280;70412;55.048;73.268;2024-02-04T11:11:59;99328.78;;;-4.98;85.68
59168;BME280;70412;55.048;73.268;2024-02-04T11:15:05;99337.44;;;-5.05;84.44
59168;BME280;70412;55.048;73.268;2024-02-04T11:22:25;99336.25;;;-5.28;86.30
59168;BME280;70412;55.048;73.268;2024-02-04T11:25:12;99339.75;;;-5.32;86.32
59168;BME280;70412;55.048;73.268;2024-02-04T11:28:24;99338.63;;;-5.60;87.08
59168;BME280;70412;55.048;73.268;2024-02-04T11:31:28;99370.09;;;-5.58;87.14
59168;BME280;70412;55.048;73.268;2024-02-04T11:34:33;99380.50;;;-5.67;86.08
59168;BME280;70412;55.048;73.268;2024-02-04T11:37:58;99397.91;;;-5.89;87.13
59168;BME280;70412;55.048;73.268;2024-02-04T11:41:03;99403.19;;;-5.97;87.40
59168;BME280;70412;55.048;73.268;2024-02-04T11:44:21;99406.06;;;-6.15;87.80
59168;BME280;70412;55.048;73.268;2024-02-04T11:47:27;99407.97;;;-6.29;88.85
59168;BME280;70412;55.048;73.268;2024-02-04T11:50:30;99426.81;;;-6.36;90.61
59168;BME280;70412;55.048;73.268;2024-02-04T11:53:34;99412.56;;;-6.50;91.66
59168;BME280;70412;55.048;73.268;2024-02-04T11:56:37;99427.19;;;-6.61;92.79
59168;BME280;70412;55.048;73.268;2024-02-04T11:59:42;99427.44;;;-6.78;93.95
59168;BME280;70412;55.048;73.268;2024-02-04T12:02:46;99412.50;;;-7.00;95.22
59168;BME280;70412;55.048;73.268;2024-02-04T12:05:50;99409.97;;;-7.02;96.03
59168;BME280;70412;55.048;73.268;2024-02-04T12:08:54;99436.34;;;-7.08;96.78
59168;BME280;70412;55.048;73.268;2024-02-04T12:11:57;99409.56;;;-7.38;97.85
59168;BME280;70412;55.048;73.268;2024-02-04T12:15:01;99398.66;;;-7.49;98.46
59168;BME280;70412;55.048;73.268;2024-02-04T12:18:11;99426.56;;;-7.38;99.21
59168;BME280;70412;55.048;73.268;2024-02-04T12:21:16;99423.25;;;-7.46;99.30
59168;BME280;70412;55.048;73.268;2024-02-04T12:24:38;99402.34;;;-7.76;100.00
59168;BME280;70412;55.048;73.268;2024-02-04T12:27:43;99411.66;;;-7.75;100.00
59168;BME280;70412;55.048;73.268;2024-02-04T12:30:54;99441.25;;;-7.63;100.00
59168;BME280;70412;55.048;73.268;2024-02-04T12:33:58;99429.47;;;-7.70;100.00
59168;BME280;70412;55.048;73.268;2024-02-04T12:37:03;99427.13;;;-7.93;100.00
59168;BME280;70412;55.048;73.268;2024-02-04T12:40:23;99454.19;;;-7.83;100.00
59168;BME280;70412;55.048;73.268;2024-02-04T12:43:39;99463.63;;;-7.94;100.00
59168;BME280;70412;55.048;73.268;2024-02-04T12:46:42;99470.44;;;-7.96;100.00
59168;BME280;70412;55.048;73.268;2024-02-04T12:49:44;99473.03;;;-8.02;100.00
59168;BME280;70412;55.048;73.268;2024-02-04T12:56:07;99481.53;;;-8.06;100.00
59168;BME280;70412;55.048;73.268;2024-02-04T12:59:10;99469.75;;;-8.15;100.00
59168;BME280;70412;55.048;73.268;2024-02-04T13:02:14;99498.50;;;-8.08;100.00
59168;BME280;70412;55.048;73.268;2024-02-04T13:05:23;99507.94;;;-8.22;100.00
59168;BME280;70412;55.048;73.268;2024-02-04T13:08:29;99507.22;;;-8.35;100.00
59168;BME280;70412;55.048;73.268;2024-02-04T13:11:32;99506.41;;;-8.43;100.00
59168;BME280;70412;55.048;73.268;2024-02-04T13:14:37;99472.66;;;-8.67;100.00
59168;BME280;70412;55.048;73.268;2024-02-04T13:17:40;99506.50;;;-8.59;100.00
59168;BME280;70412;55.048;73.268;2024-02-04T13:20:43;99516.72;;;-8.68;100.00
59168;BME280;70412;55.048;73.268;2024-02-04T13:23:51;99515.06;;;-8.70;100.00
59168;BME280;70412;55.048;73.268;2024-02-04T13:27:05;99415.47;;;-9.35;100.00
59168;BME280;70412;55.048;73.268;2024-02-04T13:30:15;99526.09;;;-8.79;100.00
59168;BME280;70412;55.048;73.268;2024-02-04T13:33:19;99533.75;;;-8.91;100.00
59168;BME280;70412;55.048;73.268;2024-02-04T13:36:23;99533.78;;;-8.97;100.00
59168;BME280;70412;55.048;73.268;2024-02-04T13:39:26;99538.88;;;-8.99;100.00
59168;BME280;70412;55.048;73.268;2024-02-04T13:42:31;99522.88;;;-9.19;100.00
59168;BME280;70412;55.048;73.268;2024-02-04T13:45:37;99554.16;;;-9.05;100.00
59168;BME280;70412;55.048;73.268;2024-02-04T13:48:39;99562.63;;;-9.04;100.00
59168;BME280;70412;55.048;73.268;2024-02-04T13:51:43;99573.63;;;-9.08;100.00
59168;BME280;70412;55.048;73.268;2024-02-04T13:54:46;99542.34;;;-9.29;100.00
59168;BME280;70412;55.048;73.268;2024-02-04T13:57:50;99559.25;;;-9.12;100.00
59168;BME280;70412;55.048;73.268;2024-02-04T14:00:55;99557.56;;;-9.12;100.00
59168;BME280;70412;55.048;73.268;2024-02-04T14:03:59;99557.53;;;-9.07;100.00
59168;BME280;70412;55.048;73.268;2024-02-04T14:07:02;99560.94;;;-9.05;100.00
59168;BME280;70412;55.048;73.268;2024-02-04T14:10:05;99555.00;;;-9.09;100.00
59168;BME280;70412;55.048;73.268;2024-02-04T14:13:09;99560.94;;;-9.11;100.00
59168;BME280;70412;55.048;73.268;2024-02-04T14:16:14;99538.13;;;-9.31;100.00
59168;BME280;70412;55.048;73.268;2024-02-04T14:19:18;99566.88;;;-9.17;100.00
59168;BME280;70412;55.048;73.268;2024-02-04T14:22:20;99544.06;;;-9.22;100.00
59168;BME280;70412;55.048;73.268;2024-02-04T14:25:24;99554.16;;;-9.14;100.00
59168;BME280;70412;55.048;73.268;2024-02-04T14:28:26;99541.50;;;-9.28;100.00
59168;BME280;70412;55.048;73.268;2024-02-04T14:31:29;99563.47;;;-9.10;100.00
59168;BME280;70412;55.048;73.268;2024-02-04T14:34:32;99569.41;;;-9.12;100.00
59168;BME280;70412;55.048;73.268;2024-02-04T14:37:35;99561.81;;;-9.17;100.00
59168;BME280;70412;55.048;73.268;2024-02-04T14:40:39;99585.53;;;-9.18;100.00
59168;BME280;70412;55.048;73.268;2024-02-04T14:43:42;99558.44;;;-9.31;100.00
59168;BME280;70412;55.048;73.268;2024-02-04T14:46:45;99586.38;;;-9.18;100.00
59168;BME280;70412;55.048;73.268;2024-02-04T14:49:47;99450.28;;;-9.93;100.00
59168;BME280;70412;55.048;73.268;2024-02-04T14:52:50;99595.66;;;-9.15;100.00
59168;BME280;70412;55.048;73.268;2024-02-04T14:55:53;99583.84;;;-9.22;100.00
59168;BME280;70412;55.048;73.268;2024-02-04T14:58:57;99605.00;;;-9.22;100.00
59168;BME280;70412;55.048;73.268;2024-02-04T15:02:00;99605.00;;;-9.28;100.00
59168;BME280;70412;55.048;73.268;2024-02-04T15:05:03;99594.84;;;-9.31;100.00
59168;BME280;70412;55.048;73.268;2024-02-04T15:08:06;99570.34;;;-9.42;100.00
59168;BME280;70412;55.048;73.268;2024-02-04T15:11:11;99573.75;;;-9.37;100.00
59168;BME280;70412;55.048;73.268;2024-02-04T15:14:14;99597.38;;;-9.17;100.00
59168;BME280;70412;55.048;73.268;2024-02-04T15:17:21;99610.09;;;-9.22;100.00
59168;BME280;70412;55.048;73.268;2024-02-04T15:20:24;99602.44;;;-9.17;100.00
59168;BME280;70412;55.048;73.268;2024-02-04T15:23:39;99585.50;;;-9.24;100.00
59168;BME280;70412;55.048;73.268;2024-02-04T15:26:43;99604.97;;;-9.09;100.00
59168;BME280;70412;55.048;73.268;2024-02-04T15:29:48;99613.41;;;-9.07;100.00
59168;BME280;70412;55.048;73.268;2024-02-04T15:32:50;99591.44;;;-9.25;100.00
59168;BME280;70412;55.048;73.268;2024-02-04T15:35:54;99626.97;;;-9.07;100.00
59168;BME280;70412;55.048;73.268;2024-02-04T15:38:56;99633.75;;;-9.01;100.00
59168;BME280;70412;55.048;73.268;2024-02-04T15:42:01;99626.09;;;-8.91;100.00
59168;BME280;70412;55.048;73.268;2024-02-04T15:45:03;99628.63;;;-8.84;100.00
59168;BME280;70412;55.048;73.268;2024-02-04T15:48:08;99631.13;;;-8.75;100.00
59168;BME280;70412;55.048;73.268;2024-02-04T15:51:25;99635.34;;;-8.70;100.00
59168;BME280;70412;55.048;73.268;2024-02-04T15:54:28;99632.78;;;-8.65;100.00
59168;BME280;70412;55.048;73.268;2024-02-04T15:57:33;99598.97;;;-8.81;100.00
59168;BME280;70412;55.048;73.268;2024-02-04T16:00:37;99636.19;;;-8.63;100.00
59168;BME280;70412;55.048;73.268;2024-02-04T16:03:41;99600.63;;;-8.75;100.00